createdAt,value
2023-01-09T00:00:44.001Z,7.90
2023-01-09T00:03:10.471Z,7.90
2023-01-09T00:05:36.961Z,7.90
2023-01-09T00:08:03.463Z,7.90
2023-01-09T00:10:29.853Z,7.89
2023-01-09T00:12:56.250Z,7.89
2023-01-09T00:15:22.737Z,7.89
2023-01-09T00:17:49.797Z,7.90
2023-01-09T00:20:16.274Z,7.90
2023-01-09T00:22:42.977Z,7.89
2023-01-09T00:25:09.794Z,7.86
2023-01-09T00:27:36.848Z,7.86
2023-01-09T00:30:03.852Z,7.85
2023-01-09T00:32:30.417Z,7.83
2023-01-09T00:34:57.143Z,7.82
2023-01-09T00:37:23.612Z,7.81
2023-01-09T00:39:50.043Z,7.82
2023-01-09T00:42:25.621Z,7.78
2023-01-09T00:44:59.081Z,7.79
2023-01-09T00:47:31.121Z,7.79
2023-01-09T00:50:05.077Z,7.78
2023-01-09T00:52:35.827Z,7.79
2023-01-09T00:55:03.149Z,7.76
2023-01-09T00:57:30.623Z,7.77
2023-01-09T00:59:57.993Z,7.78
2023-01-09T01:02:24.574Z,7.76
2023-01-09T01:05:09.724Z,7.74
2023-01-09T01:07:39.004Z,7.74
2023-01-09T01:10:22.226Z,7.76
2023-01-09T01:12:49.558Z,7.76
2023-01-09T01:15:17.175Z,7.78
2023-01-09T01:17:44.376Z,7.77
2023-01-09T01:20:18.299Z,7.76
2023-01-09T01:22:44.960Z,7.77
2023-01-09T01:25:12.951Z,7.74
2023-01-09T01:27:39.827Z,7.75
2023-01-09T01:30:08.204Z,7.76
2023-01-09T01:32:34.666Z,7.78
2023-01-09T01:35:01.142Z,7.79
2023-01-09T01:37:27.843Z,7.79
2023-01-09T01:39:55.056Z,7.80
2023-01-09T01:42:21.872Z,7.81
2023-01-09T01:45:07.903Z,7.82
2023-01-09T01:48:03.100Z,7.84
2023-01-09T01:50:45.351Z,7.86
2023-01-09T01:53:23.899Z,7.85
2023-01-09T01:56:09.512Z,7.87
2023-01-09T01:58:47.957Z,7.86
2023-01-09T02:01:15.076Z,7.91
2023-01-09T02:03:43.100Z,7.91
2023-01-09T02:06:11.826Z,7.93
2023-01-09T02:08:38.314Z,7.93
2023-01-09T02:11:05.635Z,7.94
2023-01-09T02:13:35.446Z,7.94
2023-01-09T02:16:02.197Z,7.97
2023-01-09T02:18:44.914Z,7.97
2023-01-09T02:21:31.888Z,7.96
2023-01-09T02:24:36.376Z,7.98
2023-01-09T02:27:30.325Z,8.00
2023-01-09T02:30:33.595Z,7.98
2023-01-09T02:33:27.811Z,7.97
2023-01-09T02:36:12.779Z,7.94
2023-01-09T02:38:52.165Z,7.90
2023-01-09T02:41:30.580Z,7.89
2023-01-09T02:44:23.903Z,7.87
2023-01-09T02:47:29.265Z,7.91
2023-01-09T02:49:59.277Z,7.94
2023-01-09T02:53:02.870Z,7.97
2023-01-09T02:55:43.811Z,7.99
2023-01-09T02:58:20.053Z,7.97
2023-01-09T03:01:10.427Z,7.95
2023-01-09T03:03:56.289Z,7.93
2023-01-09T03:06:47.137Z,7.93
2023-01-09T03:09:22.632Z,7.93
2023-01-09T03:11:58.711Z,7.93
2023-01-09T03:14:26.666Z,7.93
2023-01-09T03:16:58.449Z,7.96
2023-01-09T03:19:30.150Z,7.96
2023-01-09T03:21:57.408Z,7.95
2023-01-09T03:24:23.846Z,7.93
2023-01-09T03:26:50.961Z,7.90
2023-01-09T03:29:17.337Z,7.87
2023-01-09T03:31:43.814Z,7.84
2023-01-09T03:34:10.340Z,7.80
2023-01-09T03:36:36.848Z,7.76
2023-01-09T03:39:03.426Z,7.73
2023-01-09T03:41:29.845Z,7.73
2023-01-09T03:43:56.198Z,7.73
2023-01-09T03:46:22.604Z,7.72
2023-01-09T03:48:48.992Z,7.74
2023-01-09T03:51:15.341Z,7.74
2023-01-09T03:53:42.131Z,7.71
2023-01-09T03:56:08.672Z,7.70
2023-01-09T03:58:35.125Z,7.68
2023-01-09T04:01:04.658Z,7.67
2023-01-09T04:03:32.118Z,7.66
2023-01-09T04:05:58.656Z,7.64
2023-01-09T04:08:24.991Z,7.65
2023-01-09T04:10:51.890Z,7.61
2023-01-09T04:13:19.230Z,7.55
2023-01-09T04:15:45.640Z,7.50
2023-01-09T04:18:12.204Z,7.40
2023-01-09T04:20:38.713Z,7.29
2023-01-09T04:23:05.662Z,7.17
2023-01-09T04:25:32.069Z,7.09
2023-01-09T04:27:58.539Z,7.01
2023-01-09T04:30:25.404Z,6.96
2023-01-09T04:32:52.459Z,6.92
2023-01-09T04:35:20.089Z,6.89
2023-01-09T04:37:46.578Z,6.88
2023-01-09T04:40:14.020Z,6.87
2023-01-09T04:42:41.152Z,6.85
2023-01-09T04:45:09.643Z,6.83
2023-01-09T04:47:36.099Z,6.81
2023-01-09T04:50:02.660Z,6.77
2023-01-09T04:52:29.909Z,6.76
2023-01-09T04:54:56.323Z,6.75
2023-01-09T04:57:22.762Z,6.75
2023-01-09T04:59:49.224Z,6.72
2023-01-09T05:02:15.721Z,6.70
2023-01-09T05:04:42.252Z,6.72
2023-01-09T05:07:09.265Z,6.71
2023-01-09T05:09:36.080Z,6.71
2023-01-09T05:12:02.856Z,6.67
2023-01-09T05:14:29.336Z,6.68
2023-01-09T05:16:56.165Z,6.69
2023-01-09T05:19:23.611Z,6.71
2023-01-09T05:21:50.146Z,6.71
2023-01-09T05:24:16.535Z,6.70
2023-01-09T05:26:42.929Z,6.71
2023-01-09T05:29:10.089Z,6.70
2023-01-09T05:31:36.577Z,6.70
2023-01-09T05:34:03.044Z,6.67
2023-01-09T05:36:29.817Z,6.67
2023-01-09T05:38:57.855Z,6.64
2023-01-09T05:41:26.069Z,6.61
2023-01-09T05:43:52.529Z,6.58
2023-01-09T05:46:18.993Z,6.53
2023-01-09T05:48:45.963Z,6.50
2023-01-09T05:51:12.948Z,6.47
2023-01-09T05:53:39.439Z,6.46
2023-01-09T05:56:06.147Z,6.43
2023-01-09T05:58:32.573Z,6.42
2023-01-09T06:00:59.240Z,6.39
2023-01-09T06:03:25.758Z,6.34
2023-01-09T06:05:52.124Z,6.29
2023-01-09T06:08:18.534Z,6.29
2023-01-09T06:10:46.936Z,6.27
2023-01-09T06:13:13.742Z,6.25
2023-01-09T06:15:40.210Z,6.23
2023-01-09T06:18:06.758Z,6.20
2023-01-09T06:20:33.236Z,6.16
2023-01-09T06:22:59.611Z,6.11
2023-01-09T06:25:26.576Z,6.07
2023-01-09T06:27:53.021Z,6.02
2023-01-09T06:30:20.519Z,5.98
2023-01-09T06:32:50.451Z,5.97
2023-01-09T06:35:20.446Z,5.94
2023-01-09T06:37:48.224Z,5.92
2023-01-09T06:40:14.903Z,5.89
2023-01-09T06:42:45.397Z,5.87
2023-01-09T06:45:12.859Z,5.86
2023-01-09T06:47:39.397Z,5.83
2023-01-09T06:50:06.725Z,5.80
2023-01-09T06:52:33.135Z,5.80
2023-01-09T06:54:59.700Z,5.76
2023-01-09T06:57:26.278Z,5.78
2023-01-09T06:59:52.677Z,5.81
2023-01-09T07:02:21.764Z,5.87
2023-01-09T07:04:48.155Z,5.94
2023-01-09T07:07:14.694Z,5.96
2023-01-09T07:09:41.095Z,5.95
2023-01-09T07:12:07.660Z,5.96
2023-01-09T07:14:34.176Z,5.95
2023-01-09T07:17:00.550Z,5.96
2023-01-09T07:19:26.993Z,5.96
2023-01-09T07:21:53.485Z,5.96
2023-01-09T07:24:19.912Z,5.95
2023-01-09T07:26:46.359Z,5.93
2023-01-09T07:29:13.123Z,5.93
2023-01-09T07:31:39.675Z,5.95
2023-01-09T07:34:06.099Z,5.96
2023-01-09T07:36:32.489Z,6.00
2023-01-09T07:38:58.872Z,6.02
2023-01-09T07:41:25.243Z,6.03
2023-01-09T07:43:51.649Z,6.03
2023-01-09T07:46:18.143Z,6.04
2023-01-09T07:48:44.559Z,6.07
2023-01-09T07:51:11.108Z,6.10
2023-01-09T07:53:37.552Z,6.14
2023-01-09T07:56:05.503Z,6.15
2023-01-09T07:58:32.069Z,6.19
2023-01-09T08:00:58.461Z,6.21
2023-01-09T08:03:26.761Z,6.27
2023-01-09T08:05:53.169Z,6.34
2023-01-09T08:08:19.597Z,6.41
2023-01-09T08:10:45.958Z,6.46
2023-01-09T08:13:12.379Z,6.50
2023-01-09T08:15:39.089Z,6.53
2023-01-09T08:18:05.653Z,6.53
2023-01-09T08:20:32.533Z,6.58
2023-01-09T08:22:59.121Z,6.62
2023-01-09T08:25:25.546Z,6.68
2023-01-09T08:27:52.085Z,6.74
2023-01-09T08:30:18.955Z,6.77
2023-01-09T08:32:50.619Z,6.73
2023-01-09T08:35:18.870Z,6.64
2023-01-09T08:37:46.820Z,6.58
2023-01-09T08:40:14.927Z,6.56
2023-01-09T08:42:59.914Z,6.57
2023-01-09T08:45:45.358Z,6.62
2023-01-09T08:48:11.961Z,6.65
2023-01-09T08:50:38.411Z,6.67
2023-01-09T08:53:04.830Z,6.68
2023-01-09T08:55:31.358Z,6.70
2023-01-09T08:57:57.791Z,6.71
2023-01-09T09:00:24.925Z,6.72
2023-01-09T09:02:57.686Z,6.75
2023-01-09T09:05:25.838Z,6.77
2023-01-09T09:07:54.766Z,6.78
2023-01-09T09:10:27.182Z,6.82
2023-01-09T09:12:55.597Z,6.84
2023-01-09T09:15:26.296Z,6.87
2023-01-09T09:18:01.766Z,6.93
2023-01-09T09:20:30.883Z,6.95
2023-01-09T09:22:57.267Z,6.98
2023-01-09T09:25:24.158Z,7.01
2023-01-09T09:27:50.792Z,7.04
2023-01-09T09:30:19.425Z,7.06
2023-01-09T09:32:46.637Z,7.08
2023-01-09T09:35:13.110Z,7.09
2023-01-09T09:37:39.807Z,7.22
2023-01-09T09:40:18.057Z,7.35
2023-01-09T09:43:10.225Z,7.50
2023-01-09T09:45:40.867Z,7.56
2023-01-09T09:48:33.033Z,7.61
2023-01-09T09:51:23.758Z,7.66
2023-01-09T09:54:02.361Z,7.70
2023-01-09T09:56:34.509Z,7.71
2023-01-09T09:59:10.616Z,7.70
2023-01-09T10:01:41.432Z,7.68
2023-01-09T10:04:17.757Z,7.67
2023-01-09T10:06:50.112Z,7.70
2023-01-09T10:09:55.607Z,7.72
2023-01-09T10:12:37.582Z,7.72
2023-01-09T10:15:16.586Z,7.72
2023-01-09T10:18:13.878Z,7.76
2023-01-09T10:21:03.340Z,7.84
2023-01-09T10:24:27.457Z,7.92
2023-01-09T10:26:55.014Z,7.96
2023-01-09T10:29:41.586Z,7.95
2023-01-09T10:32:18.880Z,7.97
2023-01-09T10:35:06.185Z,8.00
2023-01-09T10:37:43.747Z,8.05
2023-01-09T10:40:20.173Z,8.00
2023-01-09T10:42:58.849Z,7.97
2023-01-09T10:45:38.611Z,7.92
2023-01-09T10:48:16.655Z,7.96
2023-01-09T10:50:46.735Z,7.95
2023-01-09T10:53:28.520Z,7.98
2023-01-09T10:56:00.673Z,8.05
2023-01-09T10:58:27.372Z,8.05
2023-01-09T11:00:53.873Z,8.08
2023-01-09T11:03:22.852Z,8.04
2023-01-09T11:05:56.458Z,8.02
2023-01-09T11:08:30.837Z,8.04
2023-01-09T11:11:00.126Z,8.08
2023-01-09T11:13:29.422Z,8.11
2023-01-09T11:16:05.600Z,8.15
2023-01-09T11:18:34.215Z,8.18
2023-01-09T11:21:27.811Z,8.14
2023-01-09T11:23:55.371Z,8.09
2023-01-09T11:26:24.819Z,8.03
2023-01-09T11:29:11.679Z,8.08
2023-01-09T11:31:39.962Z,8.15
2023-01-09T11:34:15.443Z,8.29
2023-01-09T11:36:42.162Z,8.34
2023-01-09T11:39:28.778Z,8.38
2023-01-09T11:41:59.007Z,8.44
2023-01-09T11:44:27.483Z,8.55
2023-01-09T11:46:54.071Z,8.65
2023-01-09T11:49:26.712Z,8.94
2023-01-09T11:52:20.370Z,8.98
2023-01-09T11:54:55.267Z,9.21
2023-01-09T11:57:24.203Z,9.16
2023-01-09T11:59:50.878Z,9.04
2023-01-09T12:02:41.636Z,8.96
2023-01-09T12:05:20.369Z,8.88
2023-01-09T12:07:47.947Z,8.93
2023-01-09T12:10:30.679Z,9.03
2023-01-09T12:13:20.568Z,8.99
2023-01-09T12:16:23.132Z,9.28
2023-01-09T12:19:20.171Z,9.52
2023-01-09T12:21:50.605Z,9.36
2023-01-09T12:24:45.779Z,9.17
2023-01-09T12:28:13.232Z,9.04
2023-01-09T12:31:02.664Z,8.98
2023-01-09T12:33:56.764Z,8.89
2023-01-09T12:36:47.648Z,8.83
2023-01-09T12:39:23.268Z,8.75
2023-01-09T12:42:31.155Z,8.60
2023-01-09T12:45:28.404Z,8.45
2023-01-09T12:48:03.154Z,8.34
2023-01-09T12:50:38.784Z,8.25
2023-01-09T12:53:23.591Z,8.20
2023-01-09T12:56:06.234Z,8.18
2023-01-09T12:58:43.097Z,8.16
2023-01-09T13:01:17.252Z,8.15
2023-01-09T13:03:59.519Z,8.16
2023-01-09T13:06:28.698Z,8.16
2023-01-09T13:09:14.692Z,8.15
2023-01-09T13:11:48.151Z,8.14
2023-01-09T13:14:23.597Z,8.15
2023-01-09T13:16:53.009Z,8.15
2023-01-09T13:19:27.523Z,8.11
2023-01-09T13:21:56.134Z,8.14
2023-01-09T13:24:47.203Z,8.17
2023-01-09T13:27:19.536Z,8.17
2023-01-09T13:29:51.400Z,8.17
2023-01-09T13:32:29.980Z,8.10
2023-01-09T13:35:01.326Z,8.05
2023-01-09T13:37:34.040Z,7.97
2023-01-09T13:40:03.960Z,7.88
2023-01-09T13:42:38.902Z,7.79
2023-01-09T13:45:17.576Z,7.79
2023-01-09T13:47:44.723Z,7.81
2023-01-09T13:50:11.109Z,7.78
2023-01-09T13:52:38.645Z,7.78
2023-01-09T13:55:25.016Z,7.76
2023-01-09T13:58:18.825Z,7.71
2023-01-09T14:00:48.602Z,7.70
2023-01-09T14:03:20.796Z,7.69
2023-01-09T14:05:47.128Z,7.65
2023-01-09T14:08:18.594Z,7.63
2023-01-09T14:10:44.913Z,7.57
2023-01-09T14:13:23.507Z,7.53
2023-01-09T14:15:52.071Z,7.61
2023-01-09T14:18:23.630Z,7.84
2023-01-09T14:20:55.905Z,8.01
2023-01-09T14:23:46.091Z,8.07
2023-01-09T14:26:41.368Z,7.93
2023-01-09T14:29:29.393Z,7.71
2023-01-09T14:32:30.643Z,7.55
2023-01-09T14:35:01.272Z,7.49
2023-01-09T14:37:29.990Z,7.47
2023-01-09T14:39:58.325Z,7.47
2023-01-09T14:42:29.091Z,7.47
2023-01-09T14:45:05.313Z,7.42
2023-01-09T14:47:31.686Z,7.38
2023-01-09T14:50:06.066Z,7.33
2023-01-09T14:52:39.430Z,7.30
2023-01-09T14:55:34.039Z,7.27
2023-01-09T14:58:20.877Z,7.24
2023-01-09T15:01:10.478Z,7.21
2023-01-09T15:03:42.657Z,7.21
2023-01-09T15:06:30.939Z,7.23
2023-01-09T15:09:03.142Z,7.21
2023-01-09T15:11:32.375Z,7.22
2023-01-09T15:14:00.206Z,7.19
2023-01-09T15:16:27.550Z,7.20
2023-01-09T15:19:01.544Z,7.16
2023-01-09T15:21:33.237Z,7.17
2023-01-09T15:24:22.927Z,7.17
2023-01-09T15:27:12.935Z,7.18
2023-01-09T15:29:39.351Z,7.17
2023-01-09T15:32:13.589Z,7.19
2023-01-09T15:34:40.039Z,7.20
2023-01-09T15:37:24.205Z,7.20
2023-01-09T15:39:50.822Z,7.22
2023-01-09T15:42:45.247Z,7.22
2023-01-09T15:45:23.498Z,7.23
2023-01-09T15:47:50.056Z,7.23
2023-01-09T15:50:18.701Z,7.23
2023-01-09T15:52:45.261Z,7.08
2023-01-09T15:55:38.373Z,6.78
2023-01-09T15:58:25.964Z,6.38
2023-01-09T16:01:16.151Z,6.10
2023-01-09T16:03:43.016Z,5.93
2023-01-09T16:06:14.416Z,5.82
2023-01-09T16:08:47.968Z,5.75
2023-01-09T16:11:34.121Z,5.74
2023-01-09T16:14:03.585Z,5.72
2023-01-09T16:16:33.720Z,5.72
2023-01-09T16:19:00.376Z,5.75
2023-01-09T16:21:37.632Z,5.81
2023-01-09T16:24:08.458Z,5.85
2023-01-09T16:26:35.034Z,5.85
2023-01-09T16:29:27.490Z,5.83
2023-01-09T16:32:02.681Z,5.85
2023-01-09T16:34:29.757Z,5.86
2023-01-09T16:36:56.724Z,5.88
2023-01-09T16:39:25.396Z,5.89
2023-01-09T16:42:10.949Z,5.91
2023-01-09T16:44:37.565Z,5.94
2023-01-09T16:47:04.025Z,5.96
2023-01-09T16:49:30.424Z,5.95
2023-01-09T16:51:57.053Z,5.96
2023-01-09T16:54:23.456Z,5.96
2023-01-09T16:56:53.045Z,5.97
2023-01-09T16:59:25.769Z,5.96
2023-01-09T17:01:53.768Z,6.00
2023-01-09T17:04:20.769Z,6.04
2023-01-09T17:06:50.464Z,6.08
2023-01-09T17:09:19.240Z,6.08
2023-01-09T17:11:46.013Z,6.11
2023-01-09T17:14:13.591Z,6.11
2023-01-09T17:16:45.622Z,6.14
2023-01-09T17:19:19.301Z,6.16
2023-01-09T17:21:46.178Z,6.17
2023-01-09T17:24:31.185Z,6.16
2023-01-09T17:27:17.199Z,6.16
2023-01-09T17:32:16.574Z,6.11
2023-01-09T17:34:43.306Z,6.14
2023-01-09T17:37:19.616Z,6.13
2023-01-09T17:39:46.310Z,6.11
2023-01-09T17:42:12.736Z,6.10
2023-01-09T17:44:39.287Z,6.10
2023-01-09T17:47:07.096Z,6.08
2023-01-09T17:49:33.578Z,6.05
2023-01-09T17:52:00.123Z,6.04
2023-01-09T17:54:26.528Z,6.00
2023-01-09T17:56:54.141Z,5.99
2023-01-09T17:59:20.612Z,6.00
2023-01-09T18:01:47.129Z,6.00
2023-01-09T18:04:13.632Z,6.00
2023-01-09T18:06:40.056Z,6.00
2023-01-09T18:09:07.371Z,5.98
2023-01-09T18:11:34.543Z,5.96
2023-01-09T18:14:01.047Z,5.97
2023-01-09T18:16:28.609Z,5.96
2023-01-09T18:18:57.768Z,5.95
2023-01-09T18:21:25.957Z,5.96
2023-01-09T18:23:52.371Z,5.98
2023-01-09T18:26:22.291Z,5.97
2023-01-09T18:28:56.469Z,5.95
2023-01-09T18:31:24.577Z,5.93
2023-01-09T18:33:53.177Z,5.89
2023-01-09T18:36:21.556Z,5.85
2023-01-09T18:38:52.182Z,5.81
2023-01-09T18:41:19.294Z,5.80
2023-01-09T18:43:52.837Z,5.79
2023-01-09T18:46:25.835Z,5.78
2023-01-09T18:48:59.713Z,5.76
2023-01-09T18:51:27.903Z,5.74
2023-01-09T18:53:55.095Z,5.72
2023-01-09T18:56:22.139Z,5.72
2023-01-09T18:58:48.762Z,5.71
2023-01-09T19:01:16.354Z,5.68
2023-01-09T19:03:43.073Z,5.67
2023-01-09T19:06:10.277Z,5.64
2023-01-09T19:08:36.821Z,5.63
2023-01-09T19:11:04.049Z,5.60
2023-01-09T19:13:34.886Z,5.62
2023-01-09T19:16:02.801Z,5.59
2023-01-09T19:18:33.275Z,5.59
2023-01-09T19:20:59.840Z,5.60
2023-01-09T19:23:26.253Z,5.57
2023-01-09T19:25:53.775Z,5.54
2023-01-09T19:28:21.259Z,5.53
2023-01-09T19:30:53.663Z,5.51
2023-01-09T19:33:20.181Z,5.49
2023-01-09T19:35:48.773Z,5.47
2023-01-09T19:38:15.168Z,5.48
2023-01-09T19:40:41.534Z,5.47
2023-01-09T19:43:07.995Z,5.46
2023-01-09T19:45:34.473Z,5.46
2023-01-09T19:48:00.908Z,5.46
2023-01-09T19:50:27.475Z,5.45
2023-01-09T19:52:54.343Z,5.45
2023-01-09T19:55:21.385Z,5.43
2023-01-09T19:57:48.467Z,5.45
2023-01-09T20:00:15.166Z,5.46
2023-01-09T20:02:42.606Z,5.44
2023-01-09T20:05:10.202Z,5.45
2023-01-09T20:07:36.731Z,5.44
2023-01-09T20:10:04.416Z,5.45
2023-01-09T20:12:34.042Z,5.43
2023-01-09T20:15:00.534Z,5.44
2023-01-09T20:17:27.026Z,5.42
2023-01-09T20:19:53.426Z,5.40
2023-01-09T20:22:19.925Z,5.39
2023-01-09T20:24:46.722Z,5.38
2023-01-09T20:27:13.912Z,5.39
2023-01-09T20:29:40.359Z,5.37
2023-01-09T20:32:07.647Z,5.37
2023-01-09T20:34:34.030Z,5.36
2023-01-09T20:37:00.534Z,5.38
2023-01-09T20:39:26.945Z,5.37
2023-01-09T20:41:55.220Z,5.38
2023-01-09T20:44:21.769Z,5.39
2023-01-09T20:46:48.649Z,5.40
2023-01-09T20:49:18.153Z,5.41
2023-01-09T20:51:47.386Z,5.39
2023-01-09T20:54:14.922Z,5.38
2023-01-09T20:56:41.741Z,5.37
2023-01-09T20:59:12.991Z,5.35
2023-01-09T21:01:40.219Z,5.33
2023-01-09T21:04:10.296Z,5.33
2023-01-09T21:06:36.763Z,5.34
2023-01-09T21:09:04.986Z,5.33
2023-01-09T21:11:31.856Z,5.32
2023-01-09T21:13:58.351Z,5.33
2023-01-09T21:16:25.779Z,5.33
2023-01-09T21:18:53.621Z,5.33
2023-01-09T21:21:23.358Z,5.34
2023-01-09T21:23:52.981Z,5.36
2023-01-09T21:26:22.542Z,5.35
2023-01-09T21:28:50.867Z,5.33
2023-01-09T21:31:19.488Z,5.34
2023-01-09T21:33:47.064Z,5.34
2023-01-09T21:36:14.281Z,5.35
2023-01-09T21:38:40.850Z,5.38
2023-01-09T21:41:40.306Z,5.38
2023-01-09T21:44:25.625Z,5.38
2023-01-09T21:46:52.151Z,5.38
2023-01-09T21:49:25.198Z,5.38
2023-01-09T21:51:53.647Z,5.39
2023-01-09T21:54:21.355Z,5.38
2023-01-09T21:56:47.846Z,5.40
2023-01-09T21:59:14.529Z,5.40
2023-01-09T22:01:40.901Z,5.43
2023-01-09T22:04:07.615Z,5.43
2023-01-09T22:06:35.211Z,5.42
2023-01-09T22:09:01.743Z,5.42
2023-01-09T22:11:29.105Z,5.41
2023-01-09T22:13:57.341Z,5.41
2023-01-09T22:16:27.167Z,5.40
2023-01-09T22:18:54.803Z,5.43
2023-01-09T22:21:25.325Z,5.42
2023-01-09T22:23:52.337Z,5.43
2023-01-09T22:26:19.643Z,5.42
2023-01-09T22:28:48.147Z,5.42
2023-01-09T22:31:19.548Z,5.43
2023-01-09T22:33:53.737Z,5.44
2023-01-09T22:36:20.576Z,5.46
2023-01-09T22:38:47.584Z,5.45
2023-01-09T22:41:14.776Z,5.45
2023-01-09T22:43:41.289Z,5.46
2023-01-09T22:46:11.577Z,5.46
2023-01-09T22:48:39.239Z,5.44
2023-01-09T22:51:17.080Z,5.45
2023-01-09T22:53:43.874Z,5.45
2023-01-09T22:56:14.200Z,5.47
2023-01-09T22:58:42.736Z,5.47
2023-01-09T23:01:12.613Z,5.45
2023-01-09T23:03:40.151Z,5.44
2023-01-09T23:06:10.681Z,5.43
2023-01-09T23:08:37.493Z,5.42
2023-01-09T23:11:07.857Z,5.39
2023-01-09T23:13:34.845Z,5.37
2023-01-09T23:16:01.838Z,5.37
2023-01-09T23:18:28.489Z,5.36
2023-01-09T23:21:01.009Z,5.36
2023-01-09T23:23:29.517Z,5.36
2023-01-09T23:25:58.890Z,5.37
2023-01-09T23:28:26.860Z,5.38
2023-01-09T23:30:54.335Z,5.38
2023-01-09T23:33:21.187Z,5.38
2023-01-09T23:35:48.441Z,5.36
2023-01-09T23:38:15.436Z,5.38
2023-01-09T23:40:42.175Z,5.36
2023-01-09T23:43:13.305Z,5.37
2023-01-09T23:45:45.245Z,5.35
2023-01-09T23:48:15.075Z,5.38
2023-01-09T23:50:49.541Z,5.39
2023-01-09T23:53:16.729Z,5.39
2023-01-09T23:55:43.217Z,5.42
2023-01-09T23:58:09.946Z,5.40
